Space — ZCTI8 — position and weather

sailwx.info

Track history (hours):
 
Tides and Currents Weather Stations Pressure Air Temp Water Temp Dewpoint Dewpoint Depression Visibility Wind Speed Wind Dir Waves Ship Positions

Space

Last reported at 2015-Apr-25 10:24 UTC. Time now 2015-Apr-26 06:17 UTC.
Position N 43°42' E 007°17'.

Length 45 m; draft 2.7 m.

Type: Pleasure craft. MMSI: 319917000.

Date/timePositionNaut miles runAvg speedWind from/ knotsBaromVisibWave heightAir tempDewpointWater temp
2015-Apr-25 10:24N 43°42' E 007°17'0 0.0
2015-Apr-25 08:24N 43°42' E 007°17'0 0.0
2015-Apr-25 07:24N 43°42' E 007°17'0 0.0
2015-Apr-25 06:12N 43°42' E 007°17'0 0.0
2015-Apr-25 04:24N 43°42' E 007°17'0 0.0
2015-Apr-25 03:30N 43°42' E 007°17'0 0.0
2015-Apr-25 02:30N 43°42' E 007°17'0 0.0
2015-Apr-25 01:30N 43°42' E 007°17'0 0.0
2015-Apr-24 18:06N 43°42' E 007°17'0 0.0
2015-Apr-24 17:24N 43°42' E 007°17'0 0.0
2015-Apr-24 16:30N 43°42' E 007°17'0 0.0
2015-Apr-24 15:30N 43°42' E 007°17'0 0.0
2015-Apr-24 13:06N 43°42' E 007°17'0 0.0
2015-Apr-24 11:30N 43°42' E 007°17'0 0.0
2015-Apr-24 09:30N 43°42' E 007°17'0 0.0
2015-Apr-24 08:30N 43°42' E 007°17'0 0.0
2015-Apr-24 07:18N 43°42' E 007°17'0 0.0
2015-Apr-23 12:25N 43°42' E 007°17'5 6.3
2015-Apr-23 11:33N 43°38' E 007°11'2 2.2
2015-Apr-23 10:33N 43°37' E 007°09'2 2.0
2015-Apr-23 09:28N 43°35' E 007°08'0 0.1
2015-Apr-23 08:28N 43°35' E 007°08'0 0.0
2015-Apr-23 07:28N 43°35' E 007°08'0 0.0
2015-Apr-23 06:28N 43°35' E 007°08'0 0.0
2015-Apr-23 05:28N 43°35' E 007°08'0 0.0
2015-Apr-23 04:22N 43°35' E 007°08'0 0.0
2015-Apr-23 03:28N 43°35' E 007°08'0 0.0
2015-Apr-23 02:28N 43°35' E 007°08'0 0.0
2015-Apr-23 01:28N 43°35' E 007°08'0 0.0
2015-Apr-23 00:28N 43°35' E 007°08'0 0.0
2015-Apr-22 23:28N 43°35' E 007°08'0 0.0
2015-Apr-22 22:28N 43°35' E 007°08'0 0.0
2015-Apr-22 21:28N 43°35' E 007°08'0 0.0
2015-Apr-22 20:28N 43°35' E 007°08'0 0.3
2015-Apr-22 19:33N 43°35' E 007°08'2811.2
2015-Apr-22 17:05N 43°16' E 006°40'0 0.0
2015-Apr-22 13:28N 43°16' E 006°40'0 0.0
2015-Apr-21 23:19N 43°16' E 006°40'0 0.0
2015-Apr-21 22:19N 43°16' E 006°40'0 0.0
2015-Apr-21 21:31N 43°16' E 006°40'0 0.0
2015-Apr-21 20:19N 43°16' E 006°40'  
2015-Apr-19 09:26N 43°29' E 007°03'5 5.5
2015-Apr-19 08:30N 43°34' E 007°07'0 0.1
2015-Apr-19 07:30N 43°34' E 007°07'0 0.0
2015-Apr-19 06:12N 43°34' E 007°07'0 0.0
2015-Apr-19 05:33N 43°34' E 007°07'6 5.7
2015-Apr-19 04:34N 43°38' E 007°12'7 6.7
2015-Apr-19 03:33N 43°42' E 007°19'0 0.0
2015-Apr-19 02:34N 43°42' E 007°19'0 0.1
2015-Apr-19 01:32N 43°42' E 007°19'0 0.1
2015-Apr-19 00:33N 43°42' E 007°19'0 0.0
2015-Apr-18 23:33N 43°42' E 007°19'0 0.0
2015-Apr-18 22:33N 43°42' E 007°19'0 0.0
2015-Apr-18 21:34N 43°42' E 007°19'0 0.0
2015-Apr-18 20:33N 43°42' E 007°19'0 0.0
2015-Apr-18 19:33N 43°42' E 007°19'0 0.0
2015-Apr-18 18:33N 43°42' E 007°19'0 0.0
2015-Apr-18 17:32N 43°42' E 007°19'0 0.0
2015-Apr-18 16:33N 43°42' E 007°19'0 0.0
2015-Apr-18 15:33N 43°42' E 007°19'0 0.0
2015-Apr-18 14:34N 43°42' E 007°19'0 0.0
2015-Apr-18 13:30N 43°42' E 007°19'0 0.0
2015-Apr-18 12:16N 43°42' E 007°19'0 0.0
2015-Apr-18 11:31N 43°42' E 007°19'0 0.0
2015-Apr-18 10:33N 43°42' E 007°19'0 0.0
2015-Apr-18 09:34N 43°42' E 007°19'0 0.0
2015-Apr-18 08:34N 43°42' E 007°19'0 0.0
2015-Apr-18 07:32N 43°42' E 007°19'0 0.0
2015-Apr-18 06:33N 43°42' E 007°19'0 0.0
2015-Apr-18 05:33N 43°42' E 007°19'0 0.0
2015-Apr-18 04:33N 43°42' E 007°19'0 0.0
2015-Apr-18 03:33N 43°42' E 007°19'0 0.0
2015-Apr-18 02:33N 43°42' E 007°19'0 0.0
2015-Apr-18 01:34N 43°42' E 007°19'0 0.0
2015-Apr-18 00:33N 43°42' E 007°19'0 0.0
2015-Apr-17 23:33N 43°42' E 007°19'0 0.0
2015-Apr-17 22:33N 43°42' E 007°19'0 0.0
2015-Apr-17 21:34N 43°42' E 007°19'0 0.0
2015-Apr-17 20:34N 43°42' E 007°19'0 0.0
2015-Apr-17 19:34N 43°42' E 007°19'0 0.0
2015-Apr-17 18:33N 43°42' E 007°19'0 0.0
2015-Apr-17 17:29N 43°42' E 007°19'0 0.0
2015-Apr-17 16:33N 43°42' E 007°19'0 0.0
2015-Apr-17 15:34N 43°42' E 007°19'0 0.0
2015-Apr-17 14:33N 43°42' E 007°19'0 0.0
2015-Apr-17 13:33N 43°42' E 007°19'0 0.0
2015-Apr-17 12:34N 43°42' E 007°19'0 0.0
2015-Apr-17 11:33N 43°42' E 007°19'0 0.0
2015-Apr-17 10:33N 43°42' E 007°19'2 1.5
2015-Apr-17 09:34N 43°41' E 007°21'0 0.1
2015-Apr-17 08:17N 43°41' E 007°21'3 4.0
2015-Apr-17 07:33N 43°42' E 007°17'0 0.0
2015-Apr-17 06:18N 43°42' E 007°17'0 0.0
2015-Apr-17 05:26N 43°42' E 007°17'0 0.0
2015-Apr-17 04:33N 43°42' E 007°17'0 0.0
2015-Apr-17 03:31N 43°42' E 007°17'0 0.0
2015-Apr-17 02:33N 43°42' E 007°17'0 0.0
2015-Apr-17 01:33N 43°42' E 007°17'0 0.0
2015-Apr-17 00:33N 43°42' E 007°17'0 0.0
2015-Apr-16 23:33N 43°42' E 007°17'0 0.0
2015-Apr-16 22:33N 43°42' E 007°17'0 0.0
2015-Apr-16 21:33N 43°42' E 007°17'0 0.0
2015-Apr-16 20:33N 43°42' E 007°17'0 0.0
2015-Apr-16 19:33N 43°42' E 007°17'0 0.0
2015-Apr-16 18:33N 43°42' E 007°17'0 0.0
2015-Apr-16 17:33N 43°42' E 007°17'0 0.0
2015-Apr-16 16:33N 43°42' E 007°17'0 0.0
2015-Apr-16 15:33N 43°42' E 007°17'0 0.0
2015-Apr-16 14:33N 43°42' E 007°17'0 0.0
2015-Apr-16 13:33N 43°42' E 007°17'0 0.0
2015-Apr-16 12:33N 43°42' E 007°17'0 0.0
2015-Apr-16 11:33N 43°42' E 007°17'0 0.0
2015-Apr-16 10:33N 43°42' E 007°17'0 0.0
2015-Apr-16 09:33N 43°42' E 007°17'0 0.0
2015-Apr-16 08:33N 43°42' E 007°17'0 0.0
2015-Apr-16 07:33N 43°42' E 007°17'0 0.0
2015-Apr-16 06:33N 43°42' E 007°17'0 0.0
2015-Apr-16 05:33N 43°42' E 007°17'0 0.0
2015-Apr-16 04:33N 43°42' E 007°17'0 0.0
2015-Apr-16 03:33N 43°42' E 007°17'0 0.0
2015-Apr-16 02:33N 43°42' E 007°17'0 0.0
2015-Apr-16 01:33N 43°42' E 007°17'0 0.0
2015-Apr-16 00:33N 43°42' E 007°17'0 0.0
2015-Apr-15 23:33N 43°42' E 007°17'0 0.0
2015-Apr-15 22:33N 43°42' E 007°17'0 0.0
2015-Apr-15 21:33N 43°42' E 007°17'0 0.0
2015-Apr-15 20:33N 43°42' E 007°17'0 0.0
2015-Apr-15 19:33N 43°42' E 007°17'0 0.0
2015-Apr-15 18:33N 43°42' E 007°17'0 0.0
2015-Apr-15 17:33N 43°42' E 007°17'0 0.0
2015-Apr-15 16:33N 43°42' E 007°17'0 0.0
2015-Apr-15 15:28N 43°42' E 007°17'0 0.0
2015-Apr-15 14:33N 43°42' E 007°17'0 0.0
2015-Apr-15 13:33N 43°42' E 007°17'0 0.0
2015-Apr-15 12:33N 43°42' E 007°17'0 0.0
2015-Apr-15 11:33N 43°42' E 007°17'0 0.0
2015-Apr-15 10:33N 43°42' E 007°17'  
Track history (hours):
 
Tides and Currents Weather Stations Pressure Air Temp Water Temp Dewpoint Dewpoint Depression Visibility Wind Speed Wind Dir Waves Ship Positions

Space

Last reported at 2015-Apr-25 10:24 UTC. Time now 2015-Apr-26 06:17 UTC.
Position N 43°42' E 007°17'.

Length 45 m; draft 2.7 m.

Type: Pleasure craft. MMSI: 319917000.

Date/timePositionNaut miles runAvg speedWind from/ knotsBaromVisibWave heightAir tempDewpointWater temp
2015-Apr-25 10:24N 43°42' E 007°17'0 0.0
2015-Apr-25 08:24N 43°42' E 007°17'0 0.0
2015-Apr-25 07:24N 43°42' E 007°17'0 0.0
2015-Apr-25 06:12N 43°42' E 007°17'0 0.0
2015-Apr-25 04:24N 43°42' E 007°17'0 0.0
2015-Apr-25 03:30N 43°42' E 007°17'0 0.0
2015-Apr-25 02:30N 43°42' E 007°17'0 0.0
2015-Apr-25 01:30N 43°42' E 007°17'0 0.0
2015-Apr-24 18:06N 43°42' E 007°17'0 0.0
2015-Apr-24 17:24N 43°42' E 007°17'0 0.0
2015-Apr-24 16:30N 43°42' E 007°17'0 0.0
2015-Apr-24 15:30N 43°42' E 007°17'0 0.0
2015-Apr-24 13:06N 43°42' E 007°17'0 0.0
2015-Apr-24 11:30N 43°42' E 007°17'0 0.0
2015-Apr-24 09:30N 43°42' E 007°17'0 0.0
2015-Apr-24 08:30N 43°42' E 007°17'0 0.0
2015-Apr-24 07:18N 43°42' E 007°17'0 0.0
2015-Apr-23 12:25N 43°42' E 007°17'5 6.3
2015-Apr-23 11:33N 43°38' E 007°11'2 2.2
2015-Apr-23 10:33N 43°37' E 007°09'2 2.0
2015-Apr-23 09:28N 43°35' E 007°08'0 0.1
2015-Apr-23 08:28N 43°35' E 007°08'0 0.0
2015-Apr-23 07:28N 43°35' E 007°08'0 0.0
2015-Apr-23 06:28N 43°35' E 007°08'0 0.0
2015-Apr-23 05:28N 43°35' E 007°08'0 0.0
2015-Apr-23 04:22N 43°35' E 007°08'0 0.0
2015-Apr-23 03:28N 43°35' E 007°08'0 0.0
2015-Apr-23 02:28N 43°35' E 007°08'0 0.0
2015-Apr-23 01:28N 43°35' E 007°08'0 0.0
2015-Apr-23 00:28N 43°35' E 007°08'0 0.0
2015-Apr-22 23:28N 43°35' E 007°08'0 0.0
2015-Apr-22 22:28N 43°35' E 007°08'0 0.0
2015-Apr-22 21:28N 43°35' E 007°08'0 0.0
2015-Apr-22 20:28N 43°35' E 007°08'0 0.3
2015-Apr-22 19:33N 43°35' E 007°08'2811.2
2015-Apr-22 17:05N 43°16' E 006°40'0 0.0
2015-Apr-22 13:28N 43°16' E 006°40'0 0.0
2015-Apr-21 23:19N 43°16' E 006°40'0 0.0
2015-Apr-21 22:19N 43°16' E 006°40'0 0.0
2015-Apr-21 21:31N 43°16' E 006°40'0 0.0
2015-Apr-21 20:19N 43°16' E 006°40'  
2015-Apr-19 09:26N 43°29' E 007°03'5 5.5
2015-Apr-19 08:30N 43°34' E 007°07'0 0.1
2015-Apr-19 07:30N 43°34' E 007°07'0 0.0
2015-Apr-19 06:12N 43°34' E 007°07'0 0.0
2015-Apr-19 05:33N 43°34' E 007°07'6 5.7
2015-Apr-19 04:34N 43°38' E 007°12'7 6.7
2015-Apr-19 03:33N 43°42' E 007°19'0 0.0
2015-Apr-19 02:34N 43°42' E 007°19'0 0.1
2015-Apr-19 01:32N 43°42' E 007°19'0 0.1
2015-Apr-19 00:33N 43°42' E 007°19'0 0.0
2015-Apr-18 23:33N 43°42' E 007°19'0 0.0
2015-Apr-18 22:33N 43°42' E 007°19'0 0.0
2015-Apr-18 21:34N 43°42' E 007°19'0 0.0
2015-Apr-18 20:33N 43°42' E 007°19'0 0.0
2015-Apr-18 19:33N 43°42' E 007°19'0 0.0
2015-Apr-18 18:33N 43°42' E 007°19'0 0.0
2015-Apr-18 17:32N 43°42' E 007°19'0 0.0
2015-Apr-18 16:33N 43°42' E 007°19'0 0.0
2015-Apr-18 15:33N 43°42' E 007°19'0 0.0
2015-Apr-18 14:34N 43°42' E 007°19'0 0.0
2015-Apr-18 13:30N 43°42' E 007°19'0 0.0
2015-Apr-18 12:16N 43°42' E 007°19'0 0.0
2015-Apr-18 11:31N 43°42' E 007°19'0 0.0
2015-Apr-18 10:33N 43°42' E 007°19'0 0.0
2015-Apr-18 09:34N 43°42' E 007°19'0 0.0
2015-Apr-18 08:34N 43°42' E 007°19'0 0.0
2015-Apr-18 07:32N 43°42' E 007°19'0 0.0
2015-Apr-18 06:33N 43°42' E 007°19'0 0.0
2015-Apr-18 05:33N 43°42' E 007°19'0 0.0
2015-Apr-18 04:33N 43°42' E 007°19'0 0.0
2015-Apr-18 03:33N 43°42' E 007°19'0 0.0
2015-Apr-18 02:33N 43°42' E 007°19'0 0.0
2015-Apr-18 01:34N 43°42' E 007°19'0 0.0
2015-Apr-18 00:33N 43°42' E 007°19'0 0.0
2015-Apr-17 23:33N 43°42' E 007°19'0 0.0
2015-Apr-17 22:33N 43°42' E 007°19'0 0.0
2015-Apr-17 21:34N 43°42' E 007°19'0 0.0
2015-Apr-17 20:34N 43°42' E 007°19'0 0.0
2015-Apr-17 19:34N 43°42' E 007°19'0 0.0
2015-Apr-17 18:33N 43°42' E 007°19'0 0.0
2015-Apr-17 17:29N 43°42' E 007°19'0 0.0
2015-Apr-17 16:33N 43°42' E 007°19'0 0.0
2015-Apr-17 15:34N 43°42' E 007°19'0 0.0
2015-Apr-17 14:33N 43°42' E 007°19'0 0.0
2015-Apr-17 13:33N 43°42' E 007°19'0 0.0
2015-Apr-17 12:34N 43°42' E 007°19'0 0.0
2015-Apr-17 11:33N 43°42' E 007°19'0 0.0
2015-Apr-17 10:33N 43°42' E 007°19'2 1.5
2015-Apr-17 09:34N 43°41' E 007°21'0 0.1
2015-Apr-17 08:17N 43°41' E 007°21'3 4.0
2015-Apr-17 07:33N 43°42' E 007°17'0 0.0
2015-Apr-17 06:18N 43°42' E 007°17'0 0.0
2015-Apr-17 05:26N 43°42' E 007°17'0 0.0
2015-Apr-17 04:33N 43°42' E 007°17'0 0.0
2015-Apr-17 03:31N 43°42' E 007°17'0 0.0
2015-Apr-17 02:33N 43°42' E 007°17'0 0.0
2015-Apr-17 01:33N 43°42' E 007°17'0 0.0
2015-Apr-17 00:33N 43°42' E 007°17'0 0.0
2015-Apr-16 23:33N 43°42' E 007°17'0 0.0
2015-Apr-16 22:33N 43°42' E 007°17'0 0.0
2015-Apr-16 21:33N 43°42' E 007°17'0 0.0
2015-Apr-16 20:33N 43°42' E 007°17'0 0.0
2015-Apr-16 19:33N 43°42' E 007°17'0 0.0
2015-Apr-16 18:33N 43°42' E 007°17'0 0.0
2015-Apr-16 17:33N 43°42' E 007°17'0 0.0
2015-Apr-16 16:33N 43°42' E 007°17'0 0.0
2015-Apr-16 15:33N 43°42' E 007°17'0 0.0
2015-Apr-16 14:33N 43°42' E 007°17'0 0.0
2015-Apr-16 13:33N 43°42' E 007°17'0 0.0
2015-Apr-16 12:33N 43°42' E 007°17'0 0.0
2015-Apr-16 11:33N 43°42' E 007°17'0 0.0
2015-Apr-16 10:33N 43°42' E 007°17'0 0.0
2015-Apr-16 09:33N 43°42' E 007°17'0 0.0
2015-Apr-16 08:33N 43°42' E 007°17'0 0.0
2015-Apr-16 07:33N 43°42' E 007°17'0 0.0
2015-Apr-16 06:33N 43°42' E 007°17'0 0.0
2015-Apr-16 05:33N 43°42' E 007°17'0 0.0
2015-Apr-16 04:33N 43°42' E 007°17'0 0.0
2015-Apr-16 03:33N 43°42' E 007°17'0 0.0
2015-Apr-16 02:33N 43°42' E 007°17'0 0.0
2015-Apr-16 01:33N 43°42' E 007°17'0 0.0
2015-Apr-16 00:33N 43°42' E 007°17'0 0.0
2015-Apr-15 23:33N 43°42' E 007°17'0 0.0
2015-Apr-15 22:33N 43°42' E 007°17'0 0.0
2015-Apr-15 21:33N 43°42' E 007°17'0 0.0
2015-Apr-15 20:33N 43°42' E 007°17'0 0.0
2015-Apr-15 19:33N 43°42' E 007°17'0 0.0
2015-Apr-15 18:33N 43°42' E 007°17'0 0.0
2015-Apr-15 17:33N 43°42' E 007°17'0 0.0
2015-Apr-15 16:33N 43°42' E 007°17'0 0.0
2015-Apr-15 15:28N 43°42' E 007°17'0 0.0
2015-Apr-15 14:33N 43°42' E 007°17'0 0.0
2015-Apr-15 13:33N 43°42' E 007°17'0 0.0
2015-Apr-15 12:33N 43°42' E 007°17'0 0.0
2015-Apr-15 11:33N 43°42' E 007°17'0 0.0
2015-Apr-15 10:33N 43°42' E 007°17'  

Dump ship's entire track history